This is the latest recevied weather packets stored in our database for station/object EA1FWM-13. If no packets are shown the sender has not sent any weather packets the latest 10 day(s).
| Time | Temp. | Humidity | Pressure | Rain* | Wind** | Luminosity | Snow |
|---|---|---|---|---|---|---|---|
| 1777306955 | 22.22° C | 67% | 1016.2 hPa | - | - | - | - |
| 1777306054 | 22.78° C | 66% | 1016.1 hPa | - | - | - | - |
| 1777305153 | 23.33° C | 62% | 1016 hPa | - | - | - | - |
| 1777304252 | 25.56° C | 56% | 1015.9 hPa | - | - | - | - |
| 1777303351 | 25.56° C | 58% | 1016.1 hPa | - | - | - | - |
| 1777302450 | 24.44° C | 59% | 1016 hPa | - | - | - | - |
| 1777301550 | 25.56° C | 57% | 1016.4 hPa | - | - | - | - |
| 1777300649 | 26.67° C | 57% | 1016.6 hPa | - | - | - | - |
| 1777299748 | 25.56° C | 59% | 1016.9 hPa | - | - | - | - |
| 1777298847 | 24.44° C | 60% | 1016.9 hPa | - | - | - | - |
| 1777297946 | 25° C | 56% | 1016.9 hPa | - | - | - | - |
| 1777297045 | 26.11° C | 52% | 1017.3 hPa | - | - | - | - |
| 1777296144 | 25.56° C | 54% | 1017.5 hPa | - | - | - | - |
| 1777295243 | 25° C | 56% | 1017.6 hPa | - | - | - | - |
| 1777294343 | 23.89° C | 57% | 1017.7 hPa | - | - | - | - |
| 1777293442 | 22.78° C | 61% | 1018.1 hPa | - | - | - | - |
| 1777292541 | 23.33° C | 60% | 1018.3 hPa | - | - | - | - |
| 1777291640 | 22.22° C | 62% | 1018.7 hPa | - | - | - | - |
| 1777290739 | 21.67° C | 63% | 1018.9 hPa | - | - | - | - |
| 1777289838 | 22.22° C | 61% | 1019.2 hPa | - | - | - | - |
| 1777288937 | 20.56° C | 66% | 1019.4 hPa | - | - | - | - |
| 1777288037 | 21.11° C | 65% | 1019.7 hPa | - | - | - | - |
| 1777287136 | 20° C | 67% | 1019.9 hPa | - | - | - | - |
| 1777286235 | 21.67° C | 64% | 1020.1 hPa | - | - | - | - |
| 1777285334 | 18.89° C | 69% | 1020.3 hPa | - | - | - | - |
* Rain since midnight (hover to see other rain measurements)
** Current wind speed in m/s (hover to see current wind gust speed)